sensor_id;sensor_type;location;lat;lon;timestamp;pressure;altitude;pressure_sealevel;temperature;humidity
43745;BME280;29359;53.048;8.732;2023-11-19T00:00:50;100816.44;;;6.30;86.73
43745;BME280;29359;53.048;8.732;2023-11-19T00:02:54;100812.09;;;6.31;86.84
43745;BME280;29359;53.048;8.732;2023-11-19T00:04:56;100807.75;;;6.33;86.71
43745;BME280;29359;53.048;8.732;2023-11-19T00:06:58;100801.66;;;6.34;86.94
43745;BME280;29359;53.048;8.732;2023-11-19T00:09:05;100798.13;;;6.36;86.87
43745;BME280;29359;53.048;8.732;2023-11-19T00:11:07;100787.72;;;6.38;86.95
43745;BME280;29359;53.048;8.732;2023-11-19T00:13:08;100781.66;;;6.39;86.89
43745;BME280;29359;53.048;8.732;2023-11-19T00:15:13;100782.50;;;6.39;86.96
43745;BME280;29359;53.048;8.732;2023-11-19T00:17:15;100776.44;;;6.41;87.01
43745;BME280;29359;53.048;8.732;2023-11-19T00:19:16;100773.75;;;6.44;86.90
43745;BME280;29359;53.048;8.732;2023-11-19T00:21:18;100763.34;;;6.45;87.02
43745;BME280;29359;53.048;8.732;2023-11-19T00:23:20;100759.81;;;6.48;86.94
43745;BME280;29359;53.048;8.732;2023-11-19T00:25:22;100766.75;;;6.49;87.01
43745;BME280;29359;53.048;8.732;2023-11-19T00:27:24;100764.09;;;6.50;87.12
43745;BME280;29359;53.048;8.732;2023-11-19T00:29:26;100761.44;;;6.53;86.99
43745;BME280;29359;53.048;8.732;2023-11-19T00:31:27;100764.03;;;6.53;87.46
43745;BME280;29359;53.048;8.732;2023-11-19T00:33:29;100762.25;;;6.55;87.43
43745;BME280;29359;53.048;8.732;2023-11-19T00:35:32;100756.97;;;6.58;87.55
43745;BME280;29359;53.048;8.732;2023-11-19T00:37:34;100752.63;;;6.60;87.57
43745;BME280;29359;53.048;8.732;2023-11-19T00:39:36;100746.53;;;6.61;87.59
43745;BME280;29359;53.048;8.732;2023-11-19T00:41:38;100746.50;;;6.63;87.83
43745;BME280;29359;53.048;8.732;2023-11-19T00:43:40;100742.09;;;6.67;87.58
43745;BME280;29359;53.048;8.732;2023-11-19T00:45:41;100742.81;;;6.72;87.80
43745;BME280;29359;53.048;8.732;2023-11-19T00:47:44;100729.81;;;6.73;87.80
43745;BME280;29359;53.048;8.732;2023-11-19T00:49:47;100734.06;;;6.76;87.91
43745;BME280;29359;53.048;8.732;2023-11-19T00:51:50;100727.94;;;6.78;87.83
43745;BME280;29359;53.048;8.732;2023-11-19T00:53:52;100719.28;;;6.79;88.12
43745;BME280;29359;53.048;8.732;2023-11-19T00:55:57;100711.41;;;6.82;87.98
43745;BME280;29359;53.048;8.732;2023-11-19T00:57:58;100702.72;;;6.85;87.81
43745;BME280;29359;53.048;8.732;2023-11-19T01:00:01;100697.47;;;6.86;88.11
43745;BME280;29359;53.048;8.732;2023-11-19T01:02:02;100691.34;;;6.89;88.09
43745;BME280;29359;53.048;8.732;2023-11-19T01:04:06;100686.94;;;6.91;88.23
43745;BME280;29359;53.048;8.732;2023-11-19T01:06:08;100694.66;;;6.94;88.08
43745;BME280;29359;53.048;8.732;2023-11-19T01:08:10;100685.06;;;6.98;88.02
43745;BME280;29359;53.048;8.732;2023-11-19T01:10:12;100685.00;;;6.99;88.28
43745;BME280;29359;53.048;8.732;2023-11-19T01:12:14;100677.13;;;7.02;88.18
43745;BME280;29359;53.048;8.732;2023-11-19T01:14:15;100679.63;;;7.07;88.34
43745;BME280;29359;53.048;8.732;2023-11-19T01:16:19;100670.91;;;7.09;88.18
43745;BME280;29359;53.048;8.732;2023-11-19T01:18:22;100681.22;;;7.12;88.19
43745;BME280;29359;53.048;8.732;2023-11-19T01:20:24;100675.06;;;7.15;88.40
43745;BME280;29359;53.048;8.732;2023-11-19T01:22:26;100680.97;;;7.22;88.57
43745;BME280;29359;53.048;8.732;2023-11-19T01:24:28;100679.97;;;7.26;88.49
43745;BME280;29359;53.048;8.732;2023-11-19T01:26:30;100672.94;;;7.29;88.63
43745;BME280;29359;53.048;8.732;2023-11-19T01:28:32;100675.47;;;7.32;88.69
43745;BME280;29359;53.048;8.732;2023-11-19T01:30:34;100660.69;;;7.34;88.56
43745;BME280;29359;53.048;8.732;2023-11-19T01:32:35;100662.28;;;7.38;88.74
43745;BME280;29359;53.048;8.732;2023-11-19T01:34:38;100665.72;;;7.41;88.76
43745;BME280;29359;53.048;8.732;2023-11-19T01:36:40;100651.69;;;7.46;89.28
43745;BME280;29359;53.048;8.732;2023-11-19T01:38:41;100660.22;;;7.51;88.69
43745;BME280;29359;53.048;8.732;2023-11-19T01:40:43;100647.09;;;7.56;89.01
43745;BME280;29359;53.048;8.732;2023-11-19T01:42:45;100644.34;;;7.60;88.84
43745;BME280;29359;53.048;8.732;2023-11-19T01:44:59;100640.69;;;7.68;89.02
43745;BME280;29359;53.048;8.732;2023-11-19T01:47:02;100633.66;;;7.70;89.22
43745;BME280;29359;53.048;8.732;2023-11-19T01:49:04;100631.81;;;7.75;89.08
43745;BME280;29359;53.048;8.732;2023-11-19T01:51:07;100634.25;;;7.79;89.10
43745;BME280;29359;53.048;8.732;2023-11-19T01:53:09;100628.97;;;7.82;89.19
43745;BME280;29359;53.048;8.732;2023-11-19T01:55:12;100615.00;;;7.85;89.18
43745;BME280;29359;53.048;8.732;2023-11-19T01:57:14;100607.19;;;7.86;89.18
43745;BME280;29359;53.048;8.732;2023-11-19T01:59:16;100612.22;;;7.91;88.97
43745;BME280;29359;53.048;8.732;2023-11-19T02:01:18;100610.41;;;7.93;89.25
43745;BME280;29359;53.048;8.732;2023-11-19T02:03:21;100599.94;;;7.96;89.08
43745;BME280;29359;53.048;8.732;2023-11-19T02:05:23;100609.38;;;7.99;89.00
43745;BME280;29359;53.048;8.732;2023-11-19T02:07:25;100598.00;;;8.03;89.29
43745;BME280;29359;53.048;8.732;2023-11-19T02:09:27;100584.84;;;8.07;89.45
43745;BME280;29359;53.048;8.732;2023-11-19T02:11:29;100584.75;;;8.10;89.27
43745;BME280;29359;53.048;8.732;2023-11-19T02:13:31;100593.16;;;8.17;89.05
43745;BME280;29359;53.048;8.732;2023-11-19T02:15:33;100585.13;;;8.25;89.29
43745;BME280;29359;53.048;8.732;2023-11-19T02:17:35;100573.69;;;8.30;89.41
43745;BME280;29359;53.048;8.732;2023-11-19T02:19:39;100576.06;;;8.36;89.59
43745;BME280;29359;53.048;8.732;2023-11-19T02:21:40;100571.59;;;8.42;89.54
43745;BME280;29359;53.048;8.732;2023-11-19T02:23:43;100572.19;;;8.50;89.51
43745;BME280;29359;53.048;8.732;2023-11-19T02:28:07;100557.00;;;8.63;89.41
43745;BME280;29359;53.048;8.732;2023-11-19T02:30:10;100566.31;;;8.68;89.56
43745;BME280;29359;53.048;8.732;2023-11-19T02:32:12;100559.31;;;8.70;89.74
43745;BME280;29359;53.048;8.732;2023-11-19T02:34:15;100566.88;;;8.78;89.63
43745;BME280;29359;53.048;8.732;2023-11-19T02:36:17;100570.13;;;8.84;89.38
43745;BME280;29359;53.048;8.732;2023-11-19T02:38:19;100568.22;;;8.88;89.63
43745;BME280;29359;53.048;8.732;2023-11-19T02:40:23;100566.31;;;8.93;89.58
43745;BME280;29359;53.048;8.732;2023-11-19T02:42:28;100564.47;;;8.97;89.70
43745;BME280;29359;53.048;8.732;2023-11-19T02:44:30;100553.06;;;8.99;89.61
43745;BME280;29359;53.048;8.732;2023-11-19T02:46:32;100549.44;;;9.03;89.83
43745;BME280;29359;53.048;8.732;2023-11-19T02:48:34;100550.13;;;9.08;89.81
43745;BME280;29359;53.048;8.732;2023-11-19T02:50:39;100548.28;;;9.12;89.67
43745;BME280;29359;53.048;8.732;2023-11-19T02:52:43;100543.78;;;9.16;89.58
43745;BME280;29359;53.048;8.732;2023-11-19T02:54:46;100542.81;;;9.18;89.64
43745;BME280;29359;53.048;8.732;2023-11-19T02:56:48;100533.97;;;9.22;89.65
43745;BME280;29359;53.048;8.732;2023-11-19T02:58:56;100525.97;;;9.27;89.82
43745;BME280;29359;53.048;8.732;2023-11-19T03:00:58;100518.84;;;9.32;89.87
43745;BME280;29359;53.048;8.732;2023-11-19T03:03:02;100528.19;;;9.38;89.80
43745;BME280;29359;53.048;8.732;2023-11-19T03:05:20;100513.28;;;9.41;89.61
43745;BME280;29359;53.048;8.732;2023-11-19T03:07:22;100515.03;;;9.41;89.85
43745;BME280;29359;53.048;8.732;2023-11-19T03:09:23;100508.88;;;9.43;89.87
43745;BME280;29359;53.048;8.732;2023-11-19T03:11:26;100514.75;;;9.48;89.99
43745;BME280;29359;53.048;8.732;2023-11-19T03:13:27;100521.56;;;9.51;89.75
43745;BME280;29359;53.048;8.732;2023-11-19T03:15:29;100517.16;;;9.53;89.66
43745;BME280;29359;53.048;8.732;2023-11-19T03:17:31;100508.38;;;9.55;90.09
43745;BME280;29359;53.048;8.732;2023-11-19T03:19:33;100510.00;;;9.58;89.77
43745;BME280;29359;53.048;8.732;2023-11-19T03:21:35;100509.88;;;9.61;89.84
43745;BME280;29359;53.048;8.732;2023-11-19T03:23:38;100515.03;;;9.63;89.90
43745;BME280;29359;53.048;8.732;2023-11-19T03:25:42;100518.44;;;9.65;89.64
43745;BME280;29359;53.048;8.732;2023-11-19T03:27:45;100515.81;;;9.65;89.90
43745;BME280;29359;53.048;8.732;2023-11-19T03:29:46;100503.63;;;9.65;89.97
43745;BME280;29359;53.048;8.732;2023-11-19T03:31:48;100511.34;;;9.68;89.94
43745;BME280;29359;53.048;8.732;2023-11-19T03:33:51;100508.66;;;9.70;89.95
43745;BME280;29359;53.048;8.732;2023-11-19T03:35:54;100508.66;;;9.70;89.85
43745;BME280;29359;53.048;8.732;2023-11-19T03:37:55;100506.00;;;9.71;89.71
43745;BME280;29359;53.048;8.732;2023-11-19T03:39:57;100507.63;;;9.74;89.82
43745;BME280;29359;53.048;8.732;2023-11-19T03:42:04;100507.59;;;9.75;89.91
43745;BME280;29359;53.048;8.732;2023-11-19T03:44:05;100493.53;;;9.78;89.94
43745;BME280;29359;53.048;8.732;2023-11-19T03:46:20;100486.53;;;9.80;90.02
43745;BME280;29359;53.048;8.732;2023-11-19T03:48:22;100484.69;;;9.82;90.00
43745;BME280;29359;53.048;8.732;2023-11-19T03:50:24;100492.50;;;9.82;90.01
43745;BME280;29359;53.048;8.732;2023-11-19T03:52:25;100490.78;;;9.82;89.95
43745;BME280;29359;53.048;8.732;2023-11-19T03:54:28;100484.63;;;9.83;89.93
43745;BME280;29359;53.048;8.732;2023-11-19T03:56:30;100488.94;;;9.84;89.98
43745;BME280;29359;53.048;8.732;2023-11-19T03:58:32;100488.84;;;9.86;89.97
43745;BME280;29359;53.048;8.732;2023-11-19T04:00:34;100496.56;;;9.89;90.16
43745;BME280;29359;53.048;8.732;2023-11-19T04:02:36;100498.97;;;9.94;90.05
43745;BME280;29359;53.048;8.732;2023-11-19T04:04:38;100497.16;;;9.96;89.94
43745;BME280;29359;53.048;8.732;2023-11-19T04:06:40;100495.41;;;9.96;89.92
43745;BME280;29359;53.048;8.732;2023-11-19T04:08:42;100498.94;;;9.95;89.89
43745;BME280;29359;53.048;8.732;2023-11-19T04:10:44;100497.94;;;9.98;90.11
43745;BME280;29359;53.048;8.732;2023-11-19T04:12:45;100507.41;;;10.00;89.97
43745;BME280;29359;53.048;8.732;2023-11-19T04:14:47;100501.22;;;10.03;90.01
43745;BME280;29359;53.048;8.732;2023-11-19T04:17:02;100502.81;;;10.07;89.94
43745;BME280;29359;53.048;8.732;2023-11-19T04:19:04;100498.44;;;10.07;90.04
43745;BME280;29359;53.048;8.732;2023-11-19T04:21:07;100498.31;;;10.11;90.10
43745;BME280;29359;53.048;8.732;2023-11-19T04:23:09;100497.25;;;10.15;90.02
43745;BME280;29359;53.048;8.732;2023-11-19T04:25:11;100493.66;;;10.17;90.04
43745;BME280;29359;53.048;8.732;2023-11-19T04:27:13;100498.94;;;10.16;89.90
43745;BME280;29359;53.048;8.732;2023-11-19T04:29:16;100497.19;;;10.16;89.91
43745;BME280;29359;53.048;8.732;2023-11-19T04:31:18;100497.09;;;10.18;90.03
43745;BME280;29359;53.048;8.732;2023-11-19T04:33:20;100490.06;;;10.20;90.12
43745;BME280;29359;53.048;8.732;2023-11-19T04:35:22;100494.38;;;10.21;90.19
43745;BME280;29359;53.048;8.732;2023-11-19T04:37:23;100486.50;;;10.22;89.91
43745;BME280;29359;53.048;8.732;2023-11-19T04:39:26;100484.66;;;10.24;90.08
43745;BME280;29359;53.048;8.732;2023-11-19T04:41:28;100483.75;;;10.25;89.87
43745;BME280;29359;53.048;8.732;2023-11-19T04:43:30;100475.94;;;10.25;89.94
43745;BME280;29359;53.048;8.732;2023-11-19T04:45:32;100473.28;;;10.27;89.78
43745;BME280;29359;53.048;8.732;2023-11-19T04:47:34;100467.94;;;10.30;89.85
43745;BME280;29359;53.048;8.732;2023-11-19T04:49:40;100464.31;;;10.32;90.22
43745;BME280;29359;53.048;8.732;2023-11-19T04:51:45;100471.19;;;10.35;89.87
43745;BME280;29359;53.048;8.732;2023-11-19T04:53:50;100464.28;;;10.34;90.01
43745;BME280;29359;53.048;8.732;2023-11-19T04:55:51;100455.50;;;10.35;90.12
43745;BME280;29359;53.048;8.732;2023-11-19T04:57:54;100445.06;;;10.35;89.89
43745;BME280;29359;53.048;8.732;2023-11-19T04:59:56;100451.06;;;10.37;89.92
43745;BME280;29359;53.048;8.732;2023-11-19T05:01:58;100458.84;;;10.39;89.89
43745;BME280;29359;53.048;8.732;2023-11-19T05:04:00;100444.78;;;10.41;90.13
43745;BME280;29359;53.048;8.732;2023-11-19T05:06:03;100456.88;;;10.44;89.87
43745;BME280;29359;53.048;8.732;2023-11-19T05:08:05;100450.72;;;10.45;89.93
43745;BME280;29359;53.048;8.732;2023-11-19T05:10:07;100461.97;;;10.47;89.93
43745;BME280;29359;53.048;8.732;2023-11-19T05:12:10;100461.00;;;10.49;89.81
43745;BME280;29359;53.048;8.732;2023-11-19T05:14:14;100448.63;;;10.53;89.87
43745;BME280;29359;53.048;8.732;2023-11-19T05:16:16;100454.63;;;10.55;89.78
43745;BME280;29359;53.048;8.732;2023-11-19T05:18:19;100452.03;;;10.55;89.55
43745;BME280;29359;53.048;8.732;2023-11-19T05:20:21;100455.41;;;10.57;89.86
43745;BME280;29359;53.048;8.732;2023-11-19T05:22:22;100452.66;;;10.60;89.72
43745;BME280;29359;53.048;8.732;2023-11-19T05:24:24;100455.97;;;10.64;89.67
43745;BME280;29359;53.048;8.732;2023-11-19T05:26:26;100450.63;;;10.67;89.55
43745;BME280;29359;53.048;8.732;2023-11-19T05:28:28;100457.53;;;10.68;89.50
43745;BME280;29359;53.048;8.732;2023-11-19T05:30:30;100457.41;;;10.71;89.37
43745;BME280;29359;53.048;8.732;2023-11-19T05:32:32;100465.88;;;10.76;89.38
43745;BME280;29359;53.048;8.732;2023-11-19T05:34:34;100462.41;;;10.75;89.27
43745;BME280;29359;53.048;8.732;2023-11-19T05:36:35;100460.66;;;10.76;89.15
43745;BME280;29359;53.048;8.732;2023-11-19T05:38:37;100461.38;;;10.79;89.04
43745;BME280;29359;53.048;8.732;2023-11-19T05:40:39;100454.25;;;10.83;88.83
43745;BME280;29359;53.048;8.732;2023-11-19T05:42:41;100451.63;;;10.83;88.60
43745;BME280;29359;53.048;8.732;2023-11-19T05:44:43;100463.84;;;10.82;89.05
43745;BME280;29359;53.048;8.732;2023-11-19T05:46:45;100455.16;;;10.82;88.93
43745;BME280;29359;53.048;8.732;2023-11-19T05:48:47;100451.63;;;10.83;88.80
43745;BME280;29359;53.048;8.732;2023-11-19T05:50:49;100464.78;;;10.81;88.77
43745;BME280;29359;53.048;8.732;2023-11-19T05:52:51;100474.38;;;10.81;88.69
43745;BME280;29359;53.048;8.732;2023-11-19T05:54:54;100467.38;;;10.81;88.47
43745;BME280;29359;53.048;8.732;2023-11-19T05:56:56;100464.78;;;10.81;88.59
43745;BME280;29359;53.048;8.732;2023-11-19T05:58:59;100463.00;;;10.82;88.45
43745;BME280;29359;53.048;8.732;2023-11-19T06:01:08;100472.47;;;10.85;88.29
43745;BME280;29359;53.048;8.732;2023-11-19T06:03:10;100477.63;;;10.86;88.28
43745;BME280;29359;53.048;8.732;2023-11-19T06:05:12;100461.94;;;10.86;88.17
43745;BME280;29359;53.048;8.732;2023-11-19T06:07:14;100473.16;;;10.88;88.05
43745;BME280;29359;53.048;8.732;2023-11-19T06:09:17;100474.03;;;10.89;88.20
43745;BME280;29359;53.048;8.732;2023-11-19T06:11:20;100470.41;;;10.91;88.13
43745;BME280;29359;53.048;8.732;2023-11-19T06:13:22;100472.25;;;10.89;87.94
43745;BME280;29359;53.048;8.732;2023-11-19T06:15:26;100476.56;;;10.90;87.52
43745;BME280;29359;53.048;8.732;2023-11-19T06:17:29;100483.34;;;10.94;86.89
43745;BME280;29359;53.048;8.732;2023-11-19T06:19:30;100483.25;;;10.96;87.13
43745;BME280;29359;53.048;8.732;2023-11-19T06:21:32;100481.34;;;10.99;87.04
43745;BME280;29359;53.048;8.732;2023-11-19T06:23:34;100478.75;;;10.99;86.89
43745;BME280;29359;53.048;8.732;2023-11-19T06:25:36;100474.44;;;10.98;86.39
43745;BME280;29359;53.048;8.732;2023-11-19T06:27:38;100470.91;;;10.99;86.90
43745;BME280;29359;53.048;8.732;2023-11-19T06:29:40;100468.28;;;10.99;86.35
43745;BME280;29359;53.048;8.732;2023-11-19T06:31:42;100470.06;;;10.99;86.31
43745;BME280;29359;53.048;8.732;2023-11-19T06:33:44;100492.59;;;11.01;85.91
43745;BME280;29359;53.048;8.732;2023-11-19T06:35:47;100480.47;;;11.00;85.81
43745;BME280;29359;53.048;8.732;2023-11-19T06:37:49;100490.13;;;10.98;85.68
43745;BME280;29359;53.048;8.732;2023-11-19T06:39:51;100496.31;;;10.96;86.03
43745;BME280;29359;53.048;8.732;2023-11-19T06:41:52;100495.47;;;10.95;85.62
43745;BME280;29359;53.048;8.732;2023-11-19T06:43:54;100494.44;;;10.99;85.26
43745;BME280;29359;53.048;8.732;2023-11-19T06:45:56;100498.88;;;10.97;85.13
43745;BME280;29359;53.048;8.732;2023-11-19T06:48:00;100497.97;;;10.98;85.20
43745;BME280;29359;53.048;8.732;2023-11-19T06:50:05;100499.78;;;10.96;84.90
43745;BME280;29359;53.048;8.732;2023-11-19T06:52:08;100493.78;;;10.94;85.22
43745;BME280;29359;53.048;8.732;2023-11-19T06:54:10;100496.41;;;10.94;85.25
43745;BME280;29359;53.048;8.732;2023-11-19T06:56:22;100496.53;;;10.91;85.11
43745;BME280;29359;53.048;8.732;2023-11-19T06:58:24;100495.69;;;10.91;85.06
43745;BME280;29359;53.048;8.732;2023-11-19T07:00:26;100500.09;;;10.90;84.85
43745;BME280;29359;53.048;8.732;2023-11-19T07:02:28;100493.00;;;10.92;84.66
43745;BME280;29359;53.048;8.732;2023-11-19T07:04:30;100502.47;;;10.95;84.65
43745;BME280;29359;53.048;8.732;2023-11-19T07:06:32;100510.25;;;10.96;84.36
43745;BME280;29359;53.048;8.732;2023-11-19T07:08:35;100511.16;;;10.95;84.18
43745;BME280;29359;53.048;8.732;2023-11-19T07:10:38;100503.31;;;10.95;84.23
43745;BME280;29359;53.048;8.732;2023-11-19T07:12:40;100516.34;;;10.97;84.33
43745;BME280;29359;53.048;8.732;2023-11-19T07:14:42;100511.13;;;10.97;84.39
43745;BME280;29359;53.048;8.732;2023-11-19T07:16:44;100512.00;;;10.96;84.32
43745;BME280;29359;53.048;8.732;2023-11-19T07:18:48;100508.56;;;10.95;84.39
43745;BME280;29359;53.048;8.732;2023-11-19T07:20:51;100507.78;;;10.93;84.13
43745;BME280;29359;53.048;8.732;2023-11-19T07:22:53;100520.84;;;10.93;84.13
43745;BME280;29359;53.048;8.732;2023-11-19T07:24:58;100509.56;;;10.93;84.21
43745;BME280;29359;53.048;8.732;2023-11-19T07:27:00;100515.63;;;10.93;83.79
43745;BME280;29359;53.048;8.732;2023-11-19T07:29:04;100513.84;;;10.94;83.80
43745;BME280;29359;53.048;8.732;2023-11-19T07:31:09;100514.84;;;10.91;83.85
43745;BME280;29359;53.048;8.732;2023-11-19T07:33:11;100527.91;;;10.91;82.91
43745;BME280;29359;53.048;8.732;2023-11-19T07:35:13;100523.59;;;10.90;82.93
43745;BME280;29359;53.048;8.732;2023-11-19T07:37:15;100522.88;;;10.87;83.05
43745;BME280;29359;53.048;8.732;2023-11-19T07:39:19;100522.16;;;10.83;82.88
43745;BME280;29359;53.048;8.732;2023-11-19T07:41:22;100526.69;;;10.79;82.70
43745;BME280;29359;53.048;8.732;2023-11-19T07:43:24;100530.13;;;10.80;83.05
43745;BME280;29359;53.048;8.732;2023-11-19T07:45:26;100530.97;;;10.80;82.80
43745;BME280;29359;53.048;8.732;2023-11-19T07:47:28;100532.69;;;10.81;82.86
43745;BME280;29359;53.048;8.732;2023-11-19T07:49:30;100526.56;;;10.82;83.03
43745;BME280;29359;53.048;8.732;2023-11-19T07:51:32;100529.88;;;10.86;83.05
43745;BME280;29359;53.048;8.732;2023-11-19T07:53:34;100524.53;;;10.89;82.89
43745;BME280;29359;53.048;8.732;2023-11-19T07:55:36;100527.06;;;10.91;83.09
43745;BME280;29359;53.048;8.732;2023-11-19T07:57:42;100534.81;;;10.92;83.07
43745;BME280;29359;53.048;8.732;2023-11-19T07:59:44;100539.16;;;10.93;82.90
43745;BME280;29359;53.048;8.732;2023-11-19T08:01:46;100530.47;;;10.93;82.76
43745;BME280;29359;53.048;8.732;2023-11-19T08:03:48;100539.16;;;10.93;82.98
43745;BME280;29359;53.048;8.732;2023-11-19T08:05:55;100538.31;;;10.93;82.67
43745;BME280;29359;53.048;8.732;2023-11-19T08:07:57;100541.75;;;10.93;82.44
43745;BME280;29359;53.048;8.732;2023-11-19T08:09:59;100545.22;;;10.94;82.43
43745;BME280;29359;53.048;8.732;2023-11-19T08:12:01;100552.13;;;10.95;81.66
43745;BME280;29359;53.048;8.732;2023-11-19T08:14:03;100553.91;;;10.94;81.85
43745;BME280;29359;53.048;8.732;2023-11-19T08:16:05;100557.44;;;10.93;81.52
43745;BME280;29359;53.048;8.732;2023-11-19T08:18:07;100553.97;;;10.93;81.57
43745;BME280;29359;53.048;8.732;2023-11-19T08:20:11;100564.34;;;10.94;81.28
43745;BME280;29359;53.048;8.732;2023-11-19T08:22:12;100555.72;;;10.92;80.91
43745;BME280;29359;53.048;8.732;2023-11-19T08:24:14;100560.94;;;10.92;80.61
43745;BME280;29359;53.048;8.732;2023-11-19T08:26:16;100561.97;;;10.90;80.69
43745;BME280;29359;53.048;8.732;2023-11-19T08:28:22;100576.78;;;10.89;80.60
43745;BME280;29359;53.048;8.732;2023-11-19T08:30:24;100568.94;;;10.89;80.54
43745;BME280;29359;53.048;8.732;2023-11-19T08:32:26;100574.19;;;10.89;80.53
43745;BME280;29359;53.048;8.732;2023-11-19T08:34:28;100582.78;;;10.91;80.38
43745;BME280;29359;53.048;8.732;2023-11-19T08:36:31;100571.47;;;10.91;80.24
43745;BME280;29359;53.048;8.732;2023-11-19T08:38:33;100578.28;;;10.95;80.10
43745;BME280;29359;53.048;8.732;2023-11-19T08:40:34;100579.13;;;10.95;79.54
43745;BME280;29359;53.048;8.732;2023-11-19T08:42:36;100588.50;;;10.99;79.55
43745;BME280;29359;53.048;8.732;2023-11-19T08:44:40;100583.28;;;10.99;79.61
43745;BME280;29359;53.048;8.732;2023-11-19T08:46:51;100583.16;;;11.02;79.89
43745;BME280;29359;53.048;8.732;2023-11-19T08:48:53;100580.47;;;11.04;79.85
43745;BME280;29359;53.048;8.732;2023-11-19T08:50:57;100582.09;;;11.06;79.56
43745;BME280;29359;53.048;8.732;2023-11-19T08:52:59;100582.81;;;11.10;79.64
43745;BME280;29359;53.048;8.732;2023-11-19T08:55:01;100591.16;;;11.18;79.50
43745;BME280;29359;53.048;8.732;2023-11-19T08:57:03;100583.25;;;11.20;79.14
43745;BME280;29359;53.048;8.732;2023-11-19T08:59:06;100588.41;;;11.21;79.03
43745;BME280;29359;53.048;8.732;2023-11-19T09:01:08;100591.97;;;11.20;78.90
43745;BME280;29359;53.048;8.732;2023-11-19T09:03:11;100582.34;;;11.21;78.78
43745;BME280;29359;53.048;8.732;2023-11-19T09:05:13;100593.44;;;11.26;79.09
43745;BME280;29359;53.048;8.732;2023-11-19T09:07:15;100592.25;;;11.33;79.06
43745;BME280;29359;53.048;8.732;2023-11-19T09:09:17;100591.19;;;11.37;78.74
43745;BME280;29359;53.048;8.732;2023-11-19T09:11:19;100584.97;;;11.40;78.64
43745;BME280;29359;53.048;8.732;2023-11-19T09:13:20;100602.16;;;11.45;78.67
43745;BME280;29359;53.048;8.732;2023-11-19T09:15:22;100603.78;;;11.48;78.40
43745;BME280;29359;53.048;8.732;2023-11-19T09:17:24;100601.16;;;11.48;78.33
43745;BME280;29359;53.048;8.732;2023-11-19T09:19:26;100597.69;;;11.47;78.06
43745;BME280;29359;53.048;8.732;2023-11-19T09:21:28;100601.16;;;11.48;78.32
43745;BME280;29359;53.048;8.732;2023-11-19T09:23:33;100598.59;;;11.46;77.83
43745;BME280;29359;53.048;8.732;2023-11-19T09:25:40;100598.69;;;11.45;78.53
43745;BME280;29359;53.048;8.732;2023-11-19T09:27:45;100609.16;;;11.45;78.60
43745;BME280;29359;53.048;8.732;2023-11-19T09:29:47;100610.22;;;11.41;79.38
43745;BME280;29359;53.048;8.732;2023-11-19T09:31:50;100603.34;;;11.38;79.66
43745;BME280;29359;53.048;8.732;2023-11-19T09:33:52;100604.31;;;11.36;79.42
43745;BME280;29359;53.048;8.732;2023-11-19T09:35:54;100604.53;;;11.31;79.68
43745;BME280;29359;53.048;8.732;2023-11-19T09:37:56;100608.19;;;11.27;80.06
43745;BME280;29359;53.048;8.732;2023-11-19T09:39:58;100611.88;;;11.23;80.29
43745;BME280;29359;53.048;8.732;2023-11-19T09:41:59;100606.78;;;11.20;80.28
43745;BME280;29359;53.048;8.732;2023-11-19T09:44:01;100617.38;;;11.17;80.81
43745;BME280;29359;53.048;8.732;2023-11-19T09:46:08;100608.88;;;11.12;80.78
43745;BME280;29359;53.048;8.732;2023-11-19T09:48:13;100609.88;;;11.09;81.21
43745;BME280;29359;53.048;8.732;2023-11-19T09:50:19;100609.94;;;11.07;81.58
43745;BME280;29359;53.048;8.732;2023-11-19T09:52:21;100613.47;;;11.06;81.92
43745;BME280;29359;53.048;8.732;2023-11-19T09:54:23;100621.31;;;11.06;82.10
43745;BME280;29359;53.048;8.732;2023-11-19T09:56:25;100620.47;;;11.06;81.94
43745;BME280;29359;53.048;8.732;2023-11-19T09:58:32;100618.78;;;11.05;81.91
43745;BME280;29359;53.048;8.732;2023-11-19T10:00:34;100624.00;;;11.05;81.93
43745;BME280;29359;53.048;8.732;2023-11-19T10:02:36;100608.44;;;11.02;81.85
43745;BME280;29359;53.048;8.732;2023-11-19T10:04:39;100614.53;;;11.02;82.03
43745;BME280;29359;53.048;8.732;2023-11-19T10:06:43;100617.13;;;11.02;82.11
43745;BME280;29359;53.048;8.732;2023-11-19T10:08:45;100620.69;;;11.01;82.11
43745;BME280;29359;53.048;8.732;2023-11-19T10:10:47;100620.81;;;10.98;82.46
43745;BME280;29359;53.048;8.732;2023-11-19T10:12:51;100610.56;;;10.94;82.44
43745;BME280;29359;53.048;8.732;2023-11-19T10:14:57;100601.16;;;10.90;82.69
43745;BME280;29359;53.048;8.732;2023-11-19T10:17:01;100600.34;;;10.88;82.84
43745;BME280;29359;53.048;8.732;2023-11-19T10:19:05;100604.81;;;10.86;83.36
43745;BME280;29359;53.048;8.732;2023-11-19T10:21:07;100610.81;;;10.88;83.16
43745;BME280;29359;53.048;8.732;2023-11-19T10:23:09;100608.88;;;10.93;83.42
43745;BME280;29359;53.048;8.732;2023-11-19T10:25:23;100595.59;;;10.97;83.03
43745;BME280;29359;53.048;8.732;2023-11-19T10:27:25;100606.69;;;11.02;82.79
43745;BME280;29359;53.048;8.732;2023-11-19T10:29:29;100603.81;;;11.09;82.45
43745;BME280;29359;53.048;8.732;2023-11-19T10:31:31;100599.31;;;11.12;82.33
43745;BME280;29359;53.048;8.732;2023-11-19T10:33:33;100597.94;;;11.22;81.93
43745;BME280;29359;53.048;8.732;2023-11-19T10:35:52;100608.00;;;11.31;81.60
43745;BME280;29359;53.048;8.732;2023-11-19T10:38:16;100607.94;;;11.33;81.34
43745;BME280;29359;53.048;8.732;2023-11-19T10:40:18;100615.00;;;11.31;81.49
43745;BME280;29359;53.048;8.732;2023-11-19T10:42:20;100613.22;;;11.31;81.28
43745;BME280;29359;53.048;8.732;2023-11-19T10:44:32;100604.59;;;11.29;81.57
43745;BME280;29359;53.048;8.732;2023-11-19T10:46:42;100622.13;;;11.27;81.30
43745;BME280;29359;53.048;8.732;2023-11-19T10:48:45;100603.13;;;11.24;81.11